Data for 04/19/2013

Time Sea-Level Adjusted Pressure Absolute Pressure Temperature Relative Humidity Dew Point   
(mb) (inHg) (mb) (inHg) (C) (F) (%) (C) (F)
00:05 1020 30.12 850 25.1 1.2 34.1 54 -7.2 19
00:10 1020 30.12 850 25.1 0.8 33.4 57 -6.7 20
00:15 1020 30.12 850 25.1 0.4 32.8 56 -7.3 18.9
00:20 1020 30.12 850 25.1 0.8 33.4 55 -7.3 18.9
00:25 1020 30.12 850 25.1 0.9 33.7 55 -7.1 19.2
00:30 1020 30.12 850 25.1 0.8 33.5 56 -6.9 19.6
00:35 1020 30.12 850 25.1 0.6 33.1 57 -6.9 19.6
00:40 1020 30.12 850 25.1 0.4 32.7 59 -6.8 19.7
00:45 1020 30.12 850 25.1 0.1 32.3 60 -6.7 19.9
00:50 1020 30.12 850 25.1 0 32 60 -6.9 19.6
00:55 1020 30.12 850 25.1 0.1 32.3 58 -7.1 19.3
01:00 1020 30.12 850 25.1 0.4 32.7 58 -7 19.4
01:05 1020 30.12 850 25.1 0.4 32.8 57 -7 19.3
01:10 1020 30.12 849 25.07 0.5 32.9 57 -7.1 19.2
01:15 1020 30.12 849 25.07 0.5 33 57 -7 19.4
01:20 1020 30.12 849 25.07 0.2 32.3 60 -6.7 19.9
01:25 1020 30.12 849 25.07 -0.1 31.8 60 -7.1 19.3
01:30 1020 30.12 849 25.07 -0.1 31.9 60 -6.9 19.5
01:35 1020 30.12 849 25.07 -0.2 31.6 61 -6.8 19.8
01:40 1020 30.12 849 25.07 -0.5 31.2 62 -6.8 19.8
01:45 1020 30.12 849 25.07 -0.3 31.4 60 -7.1 19.2
01:50 1020 30.12 849 25.07 -0.1 31.9 61 -6.8 19.8
01:55 1020 30.12 849 25.07 -0.1 31.8 60 -6.8 19.7
02:00 1020 30.12 849 25.07 -0.2 31.7 61 -6.8 19.7
02:05 1020 30.12 849 25.07 -0.2 31.7 62 -6.7 19.9
02:10 1020 30.12 849 25.07 -0.3 31.4 63 -6.6 20.2
02:15 1020 30.12 849 25.07 -0.5 31 63 -6.7 19.9
02:20 1020 30.12 849 25.07 -0.5 31.2 62 -6.9 19.6
02:25 1020 30.12 849 25.07 -0.2 31.6 61 -6.9 19.7
02:30 1020 30.12 849 25.07 -0.3 31.4 63 -6.6 20.2
02:35 1020 30.12 849 25.07 -0.6 31 64 -6.5 20.2
02:40 1020 30.12 849 25.07 -0.6 30.8 64 -6.7 20
02:45 1020 30.12 849 25.07 -0.5 31 64 -6.5 20.3
02:50 1020 30.12 849 25.07 -0.6 31 64 -6.7 20
02:55 1020 30.12 849 25.07 -0.6 30.9 63 -6.8 19.7
03:00 1020 30.12 849 25.07 -0.5 31.2 62 -6.9 19.6
03:05 1020 30.12 849 25.07 -0.3 31.4 61 -6.9 19.5
03:10 1020 30.12 849 25.07 -0.4 31.3 62 -6.7 20
03:15 1020 30.12 849 25.07 -0.4 31.3 61 -7.1 19.2
03:20 1020 30.12 849 25.07 -0.1 31.7 60 -7 19.4
03:25 1020 30.12 849 25.07 -0.2 31.7 61 -6.8 19.7
03:30 1020 30.12 849 25.07 -0.4 31.3 61 -7 19.5
03:35 1020 30.12 849 25.07 -0.5 31.1 63 -6.8 19.8
03:40 1020 30.12 849 25.07 -1 30.2 65 -6.8 19.7
03:45 1020 30.12 849 25.07 -1.1 30 64 -7.1 19.2
03:50 1020 30.12 849 25.07 -1 30.2 63 -7.2 19.1
03:55 1020 30.12 849 25.07 -0.8 30.6 62 -7.2 19.1
04:00 1020 30.12 849 25.07 -0.6 31 61 -7.2 19
04:05 1020 30.12 849 25.07 -0.4 31.4 60 -7.2 19.1
04:10 1020 30.12 849 25.07 -0.3 31.5 61 -6.8 19.7
04:15 1020 30.12 849 25.07 -0.9 30.3 65 -6.6 20.1
04:20 1020 30.12 849 25.07 -1.2 29.9 64 -7.2 19.1
04:25 1020 30.12 849 25.07 -1 30.2 64 -6.9 19.6
04:30 1020 30.12 849 25.07 -1.1 30 65 -6.8 19.8
04:35 1020 30.12 849 25.07 -0.8 30.5 63 -7.1 19.2
04:40 1020 30.12 849 25.07 -0.3 31.4 61 -7 19.5
04:45 1020 30.12 849 25.07 -0.1 31.8 62 -6.5 20.2
04:50 1020 30.12 849 25.07 -0.2 31.7 62 -6.5 20.3
04:55 1020 30.12 849 25.07 -0.1 31.8 61 -6.7 19.9
05:00 1019 30.09 849 25.07 0.3 32.5 59 -6.9 19.6
05:05 1019 30.09 849 25.07 0.5 32.9 60 -6.4 20.4
05:10 1019 30.09 848 25.04 0.4 32.7 61 -6.3 20.7
05:15 1019 30.09 849 25.07 0 32.1 63 -6.3 20.7
05:20 1019 30.09 849 25.07 -0.1 31.7 63 -6.4 20.6
05:25 1019 30.09 849 25.07 -0.2 31.7 64 -6.3 20.7
05:30 1019 30.09 848 25.04 -0.3 31.5 64 -6.2 20.9
05:35 1019 30.09 848 25.04 -0.3 31.5 63 -6.5 20.3
05:40 1019 30.09 848 25.04 -0.1 31.8 61 -6.7 19.9
05:45 1019 30.09 848 25.04 0.2 32.4 58 -7.1 19.3
05:50 1019 30.09 848 25.04 0.9 33.5 55 -7.1 19.1
05:55 1019 30.09 848 25.04 0.8 33.4 59 -6.3 20.7
06:00 1019 30.09 848 25.04 0.3 32.5 58 -6.9 19.5
06:05 1019 30.09 848 25.04 0.4 32.7 58 -6.9 19.5
06:10 1019 30.09 848 25.04 0.4 32.8 59 -6.7 20
06:15 1019 30.09 848 25.04 0.4 32.7 59 -6.7 19.9
06:20 1019 30.09 848 25.04 0.4 32.8 58 -6.8 19.7
06:25 1019 30.09 848 25.04 0.6 33.1 57 -7 19.4
06:30 1019 30.09 848 25.04 0.9 33.6 55 -7.1 19.3
06:35 1019 30.09 848 25.04 1.2 34.2 56 -6.7 20
06:40 1019 30.09 848 25.04 1.2 34.2 57 -6.3 20.7
06:45 1018 30.06 848 25.04 1.2 34.1 57 -6.3 20.6
06:50 1018 30.06 848 25.04 1.2 34.2 57 -6.4 20.6
06:55 1018 30.06 848 25.04 1.3 34.3 57 -6.3 20.7
07:00 1018 30.06 848 25.04 1.4 34.6 57 -6.2 20.8
07:05 1018 30.06 848 25.04 1.8 35.2 56 -6 21.1
07:10 1018 30.06 847 25.01 2.1 35.8 56 -5.9 21.5
07:15 1018 30.06 847 25.01 2.4 36.2 55 -5.7 21.7
07:20 1018 30.06 847 25.01 2.6 36.6 55 -5.5 22.1
07:25 1018 30.06 847 25.01 2.7 36.9 55 -5.5 22.1
07:30 1018 30.06 847 25.01 2.9 37.3 54 -5.4 22.3
07:35 1018 30.06 847 25.01 3.2 37.7 53 -5.4 22.3
07:40 1018 30.06 847 25.01 3.5 38.3 53 -5.2 22.7
07:45 1018 30.06 847 25.01 3.7 38.6 53 -5 23
07:50 1018 30.06 847 25.01 3.6 38.5 53 -5 22.9
07:55 1018 30.06 847 25.01 3.5 38.3 53 -5.1 22.8
08:00 1018 30.06 847 25.01 3.5 38.3 53 -5.2 22.7
08:05 1018 30.06 847 25.01 3.7 38.6 51 -5.4 22.2
08:10 1018 30.06 847 25.01 3.7 38.7 50 -5.7 21.7
08:15 1018 30.06 847 25.01 4 39.1 50 -5.5 22.2
08:20 1018 30.06 847 25.01 4.3 39.8 49 -5.6 22
08:25 1018 30.06 847 25.01 4.9 40.8 47 -5.4 22.3
08:30 1018 30.06 847 25.01 5.2 41.4 49 -4.7 23.5
08:35 1017 30.03 847 25.01 5.5 41.9 48 -4.6 23.6
08:40 1017 30.03 847 25.01 6.1 42.9 46 -4.6 23.8
08:45 1017 30.03 847 25.01 6.3 43.4 45 -4.8 23.3
08:50 1017 30.03 847 25.01 5.7 42.2 48 -4.5 23.9
08:55 1017 30.03 847 25.01 5.3 41.6 48 -4.9 23.2
09:00 1017 30.03 846 24.98 5.7 42.2 47 -4.9 23.2
09:05 1017 30.03 846 24.98 5.8 42.4 48 -4.4 24.1
09:10 1017 30.03 846 24.98 5.3 41.6 49 -4.5 23.9
09:15 1017 30.03 846 24.98 5.2 41.3 51 -4.1 24.6
09:20 1017 30.03 846 24.98 5 41 52 -4 24.8
09:25 1017 30.03 846 24.98 5 41 52 -4.1 24.7
09:30 1017 30.03 846 24.98 5.1 41.1 53 -3.8 25.2
09:35 1017 30.03 846 24.98 4.9 40.7 53 -3.9 25
09:40 1017 30.03 846 24.98 5.1 41.2 52 -3.9 24.9
09:45 1017 30.03 846 24.98 5.6 42 50 -3.9 24.9
09:50 1016 30 846 24.98 6 42.7 49 -4 24.9
09:55 1017 30.03 846 24.98 6.2 43.2 49 -3.8 25.2
10:00 1016 30 846 24.98 6.4 43.5 49 -3.5 25.7
10:05 1016 30 846 24.98 6.6 43.8 48 -3.6 25.6
10:10 1016 30 846 24.98 6.2 43.1 49 -3.6 25.4
10:15 1016 30 846 24.98 6.5 43.7 47 -4.1 24.6
10:20 1016 30 845 24.95 6.9 44.5 45 -4.1 24.6
10:25 1016 30 845 24.95 7.5 45.5 44 -4 24.8
10:30 1016 30 845 24.95 8 46.3 43 -3.9 24.9
10:35 1016 30 845 24.95 7.6 45.7 46 -3.2 26.2
10:40 1016 30 845 24.95 7.1 44.9 45 -3.9 24.9
10:45 1016 30 845 24.95 8.1 46.5 43 -3.8 25.1
10:50 1016 30 845 24.95 8.4 47.2 42 -3.7 25.4
10:55 1016 30 845 24.95 8.5 47.3 42 -3.7 25.3
11:00 1016 30 845 24.95 8.5 47.3 41 -3.9 25.1
11:05 1016 30 845 24.95 8.7 47.7 41 -3.8 25.1
11:10 1016 30 845 24.95 8.4 47 41 -4.2 24.4
11:15 1016 30 845 24.95 8.5 47.3 42 -3.8 25.2
11:20 1016 30 845 24.95 8.9 48 41 -3.5 25.7
11:25 1015 29.97 845 24.95 9.1 48.3 40 -3.9 25
11:30 1015 29.97 845 24.95 10.2 50.3 38 -3.6 25.5
11:35 1015 29.97 844 24.92 9.9 49.7 38 -3.6 25.5
11:40 1015 29.97 844 24.92 10.1 50.3 36 -4.3 24.3
11:45 1015 29.97 844 24.92 10.2 50.4 38 -3.3 26
11:50 1015 29.97 844 24.92 9.5 49.2 37 -4.3 24.3
11:55 1015 29.97 844 24.92 9.2 48.6 38 -4.5 24
12:00 1015 29.97 844 24.92 9.4 49 36 -4.8 23.4
12:05 1015 29.97 844 24.92 9.3 48.8 37 -4.8 23.4
12:10 1015 29.97 844 24.92 9.7 49.5 36 -4.5 24
12:15 1015 29.97 844 24.92 10.4 50.7 34 -4.7 23.6
12:20 1014 29.94 844 24.92 10.5 50.8 36 -4 24.8
12:25 1014 29.94 844 24.92 10.2 50.4 34 -4.8 23.4
12:30 1014 29.94 843 24.89 10.1 50.2 35 -4.6 23.8
12:35 1014 29.94 843 24.89 10.6 51.1 33 -4.9 23.1
12:40 1014 29.94 843 24.89 10.6 51.1 34 -4.7 23.6
12:45 1014 29.94 843 24.89 10.7 51.2 34 -4.7 23.6
12:50 1014 29.94 843 24.89 11.3 52.3 33 -4.5 23.8
12:55 1014 29.94 843 24.89 11.3 52.3 32 -4.7 23.6
13:00 1014 29.94 843 24.89 11.2 52.1 32 -4.9 23.3
13:05 1014 29.94 843 24.89 11.5 52.7 33 -4.3 24.3
13:10 1014 29.94 843 24.89 11.1 51.9 34 -4.3 24.3
13:15 1014 29.94 843 24.89 10.8 51.5 33 -4.7 23.5
13:20 1014 29.94 843 24.89 10.6 51.1 34 -4.6 23.8
13:25 1013 29.91 843 24.89 10.5 50.8 34 -4.6 23.8
13:30 1013 29.91 843 24.89 10.4 50.8 35 -4.3 24.2
13:35 1013 29.91 843 24.89 10.4 50.8 35 -4.2 24.4
13:40 1013 29.91 842 24.86 10.4 50.7 35 -4.4 24.1
13:45 1013 29.91 842 24.86 10.3 50.6 36 -4.1 24.6
13:50 1013 29.91 842 24.86 10.3 50.6 36 -4 24.8
13:55 1013 29.91 842 24.86 10.5 50.9 36 -3.8 25.2
14:00 1013 29.91 842 24.86 10.5 50.9 36 -3.7 25.3
14:05 1013 29.91 842 24.86 10.3 50.6 37 -3.7 25.4
14:10 1013 29.91 842 24.86 10.3 50.6 38 -3.4 25.8
14:15 1013 29.91 842 24.86 10.4 50.7 38 -3.3 26.1
14:20 1013 29.91 842 24.86 10.5 51 38 -3.1 26.5
14:25 1013 29.91 842 24.86 10.6 51.1 38 -2.9 26.7
14:30 1013 29.91 842 24.86 10.5 50.9 40 -2.6 27.3
14:35 1013 29.91 842 24.86 10.5 50.8 40 -2.4 27.7
14:40 1013 29.91 842 24.86 10.3 50.5 41 -2.4 27.7
14:45 1013 29.91 842 24.86 10.3 50.6 41 -2.4 27.7
14:50 1013 29.91 842 24.86 10.5 50.8 40 -2.6 27.4
14:55 1013 29.91 842 24.86 10.7 51.3 40 -2.2 28.1
15:00 1013 29.91 842 24.86 10.6 51.1 40 -2.3 27.9
15:05 1013 29.91 842 24.86 10.7 51.2 40 -2.3 27.9
15:10 1013 29.91 842 24.86 10.5 50.8 41 -2.1 28.2
15:15 1013 29.91 842 24.86 10.4 50.7 40 -2.6 27.3
15:20 1013 29.91 842 24.86 10.4 50.7 40 -2.6 27.3
15:25 1013 29.91 842 24.86 10.5 50.9 41 -2.2 28.1
15:30 1013 29.91 842 24.86 10 50 41 -2.6 27.4
15:35 1013 29.91 842 24.86 10 50 40 -2.8 27
15:40 1012 29.88 842 24.86 10.3 50.5 41 -2.4 27.7
15:45 1012 29.88 842 24.86 10.3 50.6 40 -2.7 27.1
15:50 1013 29.91 842 24.86 10.2 50.4 41 -2.3 27.8
15:55 1013 29.91 842 24.86 10 50 42 -2.3 27.9
16:00 1013 29.91 842 24.86 10.1 50.1 41 -2.5 27.4
16:05 1013 29.91 842 24.86 10.1 50.1 42 -2.2 28.1
16:10 1013 29.91 842 24.86 9.8 49.6 43 -2.1 28.2
16:15 1013 29.91 842 24.86 9.7 49.4 43 -2.2 28.1
16:20 1013 29.91 842 24.86 9.7 49.5 43 -2.2 28
16:25 1013 29.91 842 24.86 9.8 49.6 43 -2.3 27.9
16:30 1013 29.91 842 24.86 9.8 49.6 42 -2.4 27.7
16:35 1013 29.91 842 24.86 9.7 49.4 43 -2.2 28
16:40 1013 29.91 842 24.86 9.5 49.1 44 -2 28.4
16:45 1013 29.91 842 24.86 9.2 48.6 45 -2.1 28.2
16:50 1013 29.91 842 24.86 9.2 48.5 45 -2.3 27.9
16:55 1013 29.91 842 24.86 9.2 48.6 44 -2.5 27.5
17:00 1013 29.91 842 24.86 9.3 48.8 44 -2.2 28
17:05 1013 29.91 842 24.86 9.3 48.8 45 -1.9 28.5
17:10 1013 29.91 842 24.86 9.3 48.7 46 -1.6 29
17:15 1013 29.91 842 24.86 9.1 48.4 52 -0.1 31.9
17:20 1013 29.91 842 24.86 8.4 47.1 57 0.4 32.8
17:25 1013 29.91 842 24.86 7.9 46.2 59 0.4 32.7
17:30 1013 29.91 842 24.86 7.7 45.9 59 0.2 32.4
17:35 1013 29.91 843 24.89 7.6 45.8 60 0.4 32.8
17:40 1013 29.91 842 24.86 7.6 45.6 60 0.3 32.5
17:45 1013 29.91 842 24.86 7.6 45.6 59 0.2 32.3
17:50 1013 29.91 842 24.86 7.5 45.5 59 0.1 32.3
17:55 1013 29.91 842 24.86 7.6 45.7 60 0.3 32.5
18:00 1013 29.91 842 24.86 7.6 45.6 61 0.5 32.9
18:05 1013 29.91 842 24.86 7.5 45.5 62 0.7 33.3
18:10 1013 29.91 842 24.86 7.5 45.5 61 0.4 32.7
18:15 1013 29.91 842 24.86 7.5 45.4 63 0.8 33.4
18:20 1013 29.91 842 24.86 7.4 45.3 62 0.6 33
18:25 1013 29.91 842 24.86 7.4 45.3 63 0.9 33.6
18:30 1013 29.91 842 24.86 7.2 45 67 1.5 34.6
18:35 1013 29.91 842 24.86 7 44.6 68 1.5 34.7
18:40 1013 29.91 842 24.86 6.6 43.9 71 1.8 35.2
18:45 1013 29.91 842 24.86 6.4 43.5 73 1.9 35.4
18:50 1013 29.91 842 24.86 6.2 43.1 75 2 35.6
18:55 1013 29.91 843 24.89 6 42.8 75 2 35.5
19:00 1014 29.94 843 24.89 5.7 42.3 80 2.6 36.7
19:05 1014 29.94 843 24.89 5.4 41.6 82 2.5 36.6
19:10 1014 29.94 843 24.89 5.1 41.2 83 2.4 36.4
19:15 1014 29.94 843 24.89 5 40.9 82 2.2 36
19:20 1013 29.91 843 24.89 4.8 40.7 80 1.8 35.2
19:25 1013 29.91 843 24.89 4.9 40.9 80 1.7 35
19:30 1013 29.91 843 24.89 5 41 80 1.9 35.4
19:35 1013 29.91 843 24.89 4.9 40.8 79 1.5 34.7
19:40 1013 29.91 843 24.89 4.8 40.6 80 1.5 34.7
19:45 1013 29.91 843 24.89 4.7 40.4 80 1.5 34.7
19:50 1013 29.91 843 24.89 4.5 40.1 80 1.3 34.4
19:55 1013 29.91 843 24.89 4.5 40 80 1.3 34.3
20:00 1013 29.91 843 24.89 4.5 40.1 81 1.5 34.6
20:05 1013 29.91 843 24.89 4.5 40 81 1.4 34.6
20:10 1013 29.91 843 24.89 4.5 40 79 1.2 34.1
20:15 1013 29.91 843 24.89 4.5 40.2 80 1.3 34.4
20:20 1013 29.91 843 24.89 4.5 40.2 78 1 33.9
20:25 1014 29.94 843 24.89 4.6 40.3 78 1.2 34.1
20:30 1014 29.94 843 24.89 4.7 40.4 78 1.2 34.2
20:35 1014 29.94 843 24.89 4.7 40.5 80 1.6 34.9
20:40 1014 29.94 843 24.89 4.6 40.3 81 1.6 34.9
20:45 1014 29.94 843 24.89 4.7 40.5 77 1.1 34
20:50 1014 29.94 843 24.89 4.9 40.8 72 0.4 32.7
20:55 1014 29.94 843 24.89 5.4 41.7 73 0.9 33.6
21:00 1014 29.94 843 24.89 5.4 41.7 72 0.7 33.3
21:05 1014 29.94 843 24.89 5.4 41.7 72 0.8 33.4
21:10 1014 29.94 843 24.89 5.5 41.9 74 1.2 34.1
21:15 1014 29.94 843 24.89 5.4 41.7 75 1.4 34.5
21:20 1014 29.94 843 24.89 5.3 41.5 76 1.3 34.4
21:25 1014 29.94 843 24.89 5.2 41.3 75 1.2 34.1
21:30 1014 29.94 843 24.89 5.2 41.3 76 1.3 34.4
21:35 1014 29.94 843 24.89 5.2 41.3 78 1.6 34.9
21:40 1014 29.94 843 24.89 5 41 80 1.8 35.3
21:45 1014 29.94 843 24.89 4.7 40.4 83 2.1 35.8
21:50 1014 29.94 844 24.92 4.7 40.4 82 1.8 35.2
21:55 1014 29.94 844 24.92 4.5 40.1 84 2 35.5
22:00 1014 29.94 843 24.89 4.3 39.7 85 2.1 35.7
22:05 1014 29.94 843 24.89 4.2 39.6 85 1.9 35.4
22:10 1014 29.94 844 24.92 4.3 39.7 87 2.3 36.1
22:15 1014 29.94 844 24.92 4.3 39.8 87 2.3 36.1
22:20 1014 29.94 843 24.89 4.3 39.8 86 2.2 35.9
22:25 1014 29.94 843 24.89 4.3 39.8 86 2.2 36
22:30 1014 29.94 843 24.89 4.3 39.7 85 2 35.6
22:35 1014 29.94 843 24.89 4.3 39.7 86 2.1 35.7
22:40 1014 29.94 843 24.89 4.1 39.4 86 2.1 35.7
22:45 1014 29.94 843 24.89 4 39.2 87 2.1 35.8
22:50 1014 29.94 843 24.89 3.8 38.9 88 2 35.7
22:55 1014 29.94 843 24.89 3.7 38.7 88 2 35.6
23:00 1014 29.94 843 24.89 3.8 38.9 87 1.9 35.4
23:05 1014 29.94 843 24.89 3.8 38.8 87 1.8 35.2
23:10 1014 29.94 843 24.89 3.8 38.8 87 1.8 35.2
23:15 1014 29.94 843 24.89 3.8 38.9 86 1.7 35
23:20 1014 29.94 843 24.89 4 39.1 84 1.6 34.8
23:25 1014 29.94 843 24.89 4 39.2 83 1.5 34.6
23:30 1014 29.94 843 24.89 3.9 39.1 85 1.6 34.8
23:35 1014 29.94 843 24.89 3.7 38.6 85 1.4 34.5
23:40 1014 29.94 843 24.89 3.4 38.2 87 1.4 34.6
23:45 1014 29.94 843 24.89 3.2 37.7 88 1.4 34.5
23:50 1014 29.94 843 24.89 3.1 37.6 89 1.4 34.6
23:55 1014 29.94 844 24.92 3.1 37.6 89 1.4 34.6
24:00 1014 29.94 844 24.92 3.1 37.7 85 0.8 33.5